sensor_id;sensor_type;location;lat;lon;timestamp;P1;durP1;ratioP1;P2;durP2;ratioP2
19705;SDS011;10003;52.506;4.700;2023-09-19T00:02:03;3.30;;;1.27;;
19705;SDS011;10003;52.506;4.700;2023-09-19T00:04:34;8.73;;;2.07;;
19705;SDS011;10003;52.506;4.700;2023-09-19T00:07:06;3.70;;;1.70;;
19705;SDS011;10003;52.506;4.700;2023-09-19T00:09:35;2.43;;;1.53;;
19705;SDS011;10003;52.506;4.700;2023-09-19T00:12:04;2.53;;;1.17;;
19705;SDS011;10003;52.506;4.700;2023-09-19T00:14:33;4.47;;;1.20;;
19705;SDS011;10003;52.506;4.700;2023-09-19T00:17:02;3.27;;;1.33;;
19705;SDS011;10003;52.506;4.700;2023-09-19T00:19:36;2.30;;;0.90;;
19705;SDS011;10003;52.506;4.700;2023-09-19T00:22:05;5.60;;;1.77;;
19705;SDS011;10003;52.506;4.700;2023-09-19T00:24:33;2.67;;;1.30;;
19705;SDS011;10003;52.506;4.700;2023-09-19T00:27:02;5.73;;;2.40;;
19705;SDS011;10003;52.506;4.700;2023-09-19T00:29:32;4.40;;;1.50;;
19705;SDS011;10003;52.506;4.700;2023-09-19T00:32:00;7.57;;;2.83;;
19705;SDS011;10003;52.506;4.700;2023-09-19T00:34:30;7.60;;;2.20;;
19705;SDS011;10003;52.506;4.700;2023-09-19T00:37:02;5.40;;;1.47;;
19705;SDS011;10003;52.506;4.700;2023-09-19T00:39:30;1.10;;;1.00;;
19705;SDS011;10003;52.506;4.700;2023-09-19T00:41:59;5.87;;;2.37;;
19705;SDS011;10003;52.506;4.700;2023-09-19T00:44:31;6.13;;;1.77;;
19705;SDS011;10003;52.506;4.700;2023-09-19T00:47:01;5.67;;;2.23;;
19705;SDS011;10003;52.506;4.700;2023-09-19T00:49:30;42.70;;;4.47;;
19705;SDS011;10003;52.506;4.700;2023-09-19T00:52:01;3.67;;;1.13;;
19705;SDS011;10003;52.506;4.700;2023-09-19T00:54:31;5.23;;;1.43;;
19705;SDS011;10003;52.506;4.700;2023-09-19T00:57:00;1.57;;;1.33;;
19705;SDS011;10003;52.506;4.700;2023-09-19T00:59:34;3.77;;;1.80;;
19705;SDS011;10003;52.506;4.700;2023-09-19T01:02:03;3.07;;;1.50;;
19705;SDS011;10003;52.506;4.700;2023-09-19T01:04:31;2.20;;;1.00;;
19705;SDS011;10003;52.506;4.700;2023-09-19T01:07:01;2.67;;;1.47;;
19705;SDS011;10003;52.506;4.700;2023-09-19T01:09:30;7.23;;;2.23;;
19705;SDS011;10003;52.506;4.700;2023-09-19T01:12:01;6.40;;;2.17;;
19705;SDS011;10003;52.506;4.700;2023-09-19T01:14:33;4.40;;;2.47;;
19705;SDS011;10003;52.506;4.700;2023-09-19T01:17:05;5.00;;;2.67;;
19705;SDS011;10003;52.506;4.700;2023-09-19T01:19:53;4.13;;;2.10;;
19705;SDS011;10003;52.506;4.700;2023-09-19T01:22:30;5.07;;;1.77;;
19705;SDS011;10003;52.506;4.700;2023-09-19T01:25:07;5.20;;;1.67;;
19705;SDS011;10003;52.506;4.700;2023-09-19T01:27:53;6.77;;;2.13;;
19705;SDS011;10003;52.506;4.700;2023-09-19T01:30:29;1.53;;;1.40;;
19705;SDS011;10003;52.506;4.700;2023-09-19T01:33:00;5.00;;;1.67;;
19705;SDS011;10003;52.506;4.700;2023-09-19T01:35:30;2.17;;;1.97;;
19705;SDS011;10003;52.506;4.700;2023-09-19T01:37:59;11.17;;;3.00;;
19705;SDS011;10003;52.506;4.700;2023-09-19T01:40:27;5.50;;;2.20;;
19705;SDS011;10003;52.506;4.700;2023-09-19T01:42:57;5.97;;;1.80;;
19705;SDS011;10003;52.506;4.700;2023-09-19T01:45:30;4.17;;;1.63;;
19705;SDS011;10003;52.506;4.700;2023-09-19T01:48:05;4.00;;;2.13;;
19705;SDS011;10003;52.506;4.700;2023-09-19T01:50:41;2.10;;;0.63;;
19705;SDS011;10003;52.506;4.700;2023-09-19T01:53:15;3.10;;;1.20;;
19705;SDS011;10003;52.506;4.700;2023-09-19T01:55:47;7.60;;;1.90;;
19705;SDS011;10003;52.506;4.700;2023-09-19T01:58:20;9.03;;;2.60;;
19705;SDS011;10003;52.506;4.700;2023-09-19T02:00:51;4.00;;;1.47;;
19705;SDS011;10003;52.506;4.700;2023-09-19T02:03:20;2.07;;;1.87;;
19705;SDS011;10003;52.506;4.700;2023-09-19T02:05:50;8.57;;;3.50;;
19705;SDS011;10003;52.506;4.700;2023-09-19T02:08:21;4.43;;;2.00;;
19705;SDS011;10003;52.506;4.700;2023-09-19T02:10:53;4.63;;;2.00;;
19705;SDS011;10003;52.506;4.700;2023-09-19T02:13:21;7.43;;;2.53;;
19705;SDS011;10003;52.506;4.700;2023-09-19T02:15:52;4.27;;;1.43;;
19705;SDS011;10003;52.506;4.700;2023-09-19T02:18:22;1.50;;;1.40;;
19705;SDS011;10003;52.506;4.700;2023-09-19T02:20:50;5.27;;;1.83;;
19705;SDS011;10003;52.506;4.700;2023-09-19T02:23:22;3.87;;;1.83;;
19705;SDS011;10003;52.506;4.700;2023-09-19T02:25:54;7.47;;;2.40;;
19705;SDS011;10003;52.506;4.700;2023-09-19T02:28:24;5.30;;;2.03;;
19705;SDS011;10003;52.506;4.700;2023-09-19T02:30:57;2.57;;;1.73;;
19705;SDS011;10003;52.506;4.700;2023-09-19T02:33:26;5.47;;;2.40;;
19705;SDS011;10003;52.506;4.700;2023-09-19T02:35:59;2.73;;;2.30;;
19705;SDS011;10003;52.506;4.700;2023-09-19T02:38:30;14.20;;;2.77;;
19705;SDS011;10003;52.506;4.700;2023-09-19T02:40:59;4.47;;;1.90;;
19705;SDS011;10003;52.506;4.700;2023-09-19T02:43:27;3.13;;;2.07;;
19705;SDS011;10003;52.506;4.700;2023-09-19T02:45:57;3.60;;;1.93;;
19705;SDS011;10003;52.506;4.700;2023-09-19T02:48:26;5.53;;;1.50;;
19705;SDS011;10003;52.506;4.700;2023-09-19T02:50:55;5.10;;;2.00;;
19705;SDS011;10003;52.506;4.700;2023-09-19T02:53:24;6.17;;;2.40;;
19705;SDS011;10003;52.506;4.700;2023-09-19T02:55:52;5.00;;;2.27;;
19705;SDS011;10003;52.506;4.700;2023-09-19T02:58:21;5.90;;;1.87;;
19705;SDS011;10003;52.506;4.700;2023-09-19T03:00:51;8.20;;;2.47;;
19705;SDS011;10003;52.506;4.700;2023-09-19T03:03:23;2.93;;;2.13;;
19705;SDS011;10003;52.506;4.700;2023-09-19T03:05:51;16.33;;;2.33;;
19705;SDS011;10003;52.506;4.700;2023-09-19T03:08:21;5.77;;;1.93;;
19705;SDS011;10003;52.506;4.700;2023-09-19T03:10:49;9.53;;;3.17;;
19705;SDS011;10003;52.506;4.700;2023-09-19T03:13:18;4.73;;;2.23;;
19705;SDS011;10003;52.506;4.700;2023-09-19T03:15:46;7.77;;;1.53;;
19705;SDS011;10003;52.506;4.700;2023-09-19T03:18:17;4.53;;;2.63;;
19705;SDS011;10003;52.506;4.700;2023-09-19T03:20:53;9.33;;;2.30;;
19705;SDS011;10003;52.506;4.700;2023-09-19T03:23:22;6.83;;;2.00;;
19705;SDS011;10003;52.506;4.700;2023-09-19T03:25:52;1.77;;;1.57;;
19705;SDS011;10003;52.506;4.700;2023-09-19T03:28:22;12.37;;;3.13;;
19705;SDS011;10003;52.506;4.700;2023-09-19T03:30:57;5.67;;;2.40;;
19705;SDS011;10003;52.506;4.700;2023-09-19T03:33:27;5.90;;;1.90;;
19705;SDS011;10003;52.506;4.700;2023-09-19T03:35:59;5.40;;;1.93;;
19705;SDS011;10003;52.506;4.700;2023-09-19T03:38:29;5.33;;;1.67;;
19705;SDS011;10003;52.506;4.700;2023-09-19T03:40:59;6.33;;;3.30;;
19705;SDS011;10003;52.506;4.700;2023-09-19T03:43:28;3.93;;;1.43;;
19705;SDS011;10003;52.506;4.700;2023-09-19T03:46:00;8.73;;;2.17;;
19705;SDS011;10003;52.506;4.700;2023-09-19T03:48:32;2.13;;;1.50;;
19705;SDS011;10003;52.506;4.700;2023-09-19T03:51:02;4.43;;;1.93;;
19705;SDS011;10003;52.506;4.700;2023-09-19T03:53:31;4.53;;;1.90;;
19705;SDS011;10003;52.506;4.700;2023-09-19T03:55:59;5.63;;;1.70;;
19705;SDS011;10003;52.506;4.700;2023-09-19T03:58:28;2.70;;;1.43;;
19705;SDS011;10003;52.506;4.700;2023-09-19T04:00:56;6.43;;;3.70;;
19705;SDS011;10003;52.506;4.700;2023-09-19T04:03:25;4.17;;;1.77;;
19705;SDS011;10003;52.506;4.700;2023-09-19T04:06:03;5.17;;;2.50;;
19705;SDS011;10003;52.506;4.700;2023-09-19T04:08:31;3.73;;;1.50;;
19705;SDS011;10003;52.506;4.700;2023-09-19T04:11:00;8.67;;;4.10;;
19705;SDS011;10003;52.506;4.700;2023-09-19T04:13:28;2.83;;;1.10;;
19705;SDS011;10003;52.506;4.700;2023-09-19T04:15:57;5.17;;;2.20;;
19705;SDS011;10003;52.506;4.700;2023-09-19T04:18:25;4.13;;;1.87;;
19705;SDS011;10003;52.506;4.700;2023-09-19T04:20:54;4.43;;;1.90;;
19705;SDS011;10003;52.506;4.700;2023-09-19T04:23:24;2.03;;;1.13;;
19705;SDS011;10003;52.506;4.700;2023-09-19T04:25:52;6.83;;;1.97;;
19705;SDS011;10003;52.506;4.700;2023-09-19T04:28:21;4.43;;;1.20;;
19705;SDS011;10003;52.506;4.700;2023-09-19T04:30:50;4.87;;;2.27;;
19705;SDS011;10003;52.506;4.700;2023-09-19T04:33:19;4.90;;;1.67;;
19705;SDS011;10003;52.506;4.700;2023-09-19T04:35:48;3.43;;;1.90;;
19705;SDS011;10003;52.506;4.700;2023-09-19T04:38:17;7.87;;;1.53;;
19705;SDS011;10003;52.506;4.700;2023-09-19T04:40:48;1.50;;;0.97;;
19705;SDS011;10003;52.506;4.700;2023-09-19T04:43:17;2.83;;;1.93;;
19705;SDS011;10003;52.506;4.700;2023-09-19T04:45:45;7.20;;;2.10;;
19705;SDS011;10003;52.506;4.700;2023-09-19T04:48:14;4.50;;;2.43;;
19705;SDS011;10003;52.506;4.700;2023-09-19T04:50:42;6.00;;;1.43;;
19705;SDS011;10003;52.506;4.700;2023-09-19T04:53:11;7.10;;;2.33;;
19705;SDS011;10003;52.506;4.700;2023-09-19T04:55:39;1.17;;;1.07;;
19705;SDS011;10003;52.506;4.700;2023-09-19T04:58:09;7.90;;;2.10;;
19705;SDS011;10003;52.506;4.700;2023-09-19T05:00:38;3.50;;;1.43;;
19705;SDS011;10003;52.506;4.700;2023-09-19T05:03:06;5.00;;;2.60;;
19705;SDS011;10003;52.506;4.700;2023-09-19T05:05:35;5.77;;;2.77;;
19705;SDS011;10003;52.506;4.700;2023-09-19T05:08:05;1.50;;;1.20;;
19705;SDS011;10003;52.506;4.700;2023-09-19T05:10:35;6.40;;;1.93;;
19705;SDS011;10003;52.506;4.700;2023-09-19T05:13:04;2.97;;;1.00;;
19705;SDS011;10003;52.506;4.700;2023-09-19T05:15:35;6.77;;;2.37;;
19705;SDS011;10003;52.506;4.700;2023-09-19T05:18:04;2.07;;;1.33;;
19705;SDS011;10003;52.506;4.700;2023-09-19T05:20:33;12.73;;;3.07;;
19705;SDS011;10003;52.506;4.700;2023-09-19T05:23:07;3.23;;;2.40;;
19705;SDS011;10003;52.506;4.700;2023-09-19T05:25:38;3.23;;;1.77;;
19705;SDS011;10003;52.506;4.700;2023-09-19T05:28:08;1.13;;;0.90;;
19705;SDS011;10003;52.506;4.700;2023-09-19T05:30:39;6.60;;;1.83;;
19705;SDS011;10003;52.506;4.700;2023-09-19T05:33:12;2.97;;;1.17;;
19705;SDS011;10003;52.506;4.700;2023-09-19T05:35:40;7.03;;;2.23;;
19705;SDS011;10003;52.506;4.700;2023-09-19T05:38:09;7.97;;;2.13;;
19705;SDS011;10003;52.506;4.700;2023-09-19T05:40:39;3.77;;;1.47;;
19705;SDS011;10003;52.506;4.700;2023-09-19T05:43:09;7.40;;;1.77;;
19705;SDS011;10003;52.506;4.700;2023-09-19T05:45:37;4.00;;;1.47;;
19705;SDS011;10003;52.506;4.700;2023-09-19T05:48:09;10.40;;;3.43;;
19705;SDS011;10003;52.506;4.700;2023-09-19T05:50:38;7.83;;;1.63;;
19705;SDS011;10003;52.506;4.700;2023-09-19T05:53:06;12.00;;;2.87;;
19705;SDS011;10003;52.506;4.700;2023-09-19T05:55:38;5.70;;;2.43;;
19705;SDS011;10003;52.506;4.700;2023-09-19T05:58:07;5.70;;;2.20;;
19705;SDS011;10003;52.506;4.700;2023-09-19T06:00:36;7.80;;;2.43;;
19705;SDS011;10003;52.506;4.700;2023-09-19T06:03:05;1.50;;;1.17;;
19705;SDS011;10003;52.506;4.700;2023-09-19T06:05:36;2.57;;;1.33;;
19705;SDS011;10003;52.506;4.700;2023-09-19T06:08:06;13.23;;;2.60;;
19705;SDS011;10003;52.506;4.700;2023-09-19T06:10:35;8.27;;;2.33;;
19705;SDS011;10003;52.506;4.700;2023-09-19T06:13:04;3.97;;;1.73;;
19705;SDS011;10003;52.506;4.700;2023-09-19T06:15:36;6.70;;;2.37;;
19705;SDS011;10003;52.506;4.700;2023-09-19T06:18:09;1.57;;;1.10;;
19705;SDS011;10003;52.506;4.700;2023-09-19T06:20:48;1.97;;;1.50;;
19705;SDS011;10003;52.506;4.700;2023-09-19T06:23:17;5.07;;;2.00;;
19705;SDS011;10003;52.506;4.700;2023-09-19T06:25:47;1.27;;;0.97;;
19705;SDS011;10003;52.506;4.700;2023-09-19T06:28:15;7.63;;;1.73;;
19705;SDS011;10003;52.506;4.700;2023-09-19T06:30:50;5.67;;;2.10;;
19705;SDS011;10003;52.506;4.700;2023-09-19T06:33:18;4.57;;;1.73;;
19705;SDS011;10003;52.506;4.700;2023-09-19T06:35:49;5.33;;;1.97;;
19705;SDS011;10003;52.506;4.700;2023-09-19T06:38:19;2.13;;;1.10;;
19705;SDS011;10003;52.506;4.700;2023-09-19T06:40:47;6.03;;;1.63;;
19705;SDS011;10003;52.506;4.700;2023-09-19T06:43:16;4.73;;;1.90;;
19705;SDS011;10003;52.506;4.700;2023-09-19T06:45:46;4.23;;;2.47;;
19705;SDS011;10003;52.506;4.700;2023-09-19T06:48:15;4.80;;;2.90;;
19705;SDS011;10003;52.506;4.700;2023-09-19T06:50:43;6.67;;;2.17;;
19705;SDS011;10003;52.506;4.700;2023-09-19T06:53:15;3.83;;;1.77;;
19705;SDS011;10003;52.506;4.700;2023-09-19T06:55:45;5.67;;;2.13;;
19705;SDS011;10003;52.506;4.700;2023-09-19T06:58:14;5.30;;;2.40;;
19705;SDS011;10003;52.506;4.700;2023-09-19T07:00:45;7.23;;;3.00;;
19705;SDS011;10003;52.506;4.700;2023-09-19T07:03:13;8.00;;;2.20;;
19705;SDS011;10003;52.506;4.700;2023-09-19T07:05:47;3.97;;;1.93;;
19705;SDS011;10003;52.506;4.700;2023-09-19T07:08:17;4.80;;;2.00;;
19705;SDS011;10003;52.506;4.700;2023-09-19T07:10:47;10.30;;;2.57;;
19705;SDS011;10003;52.506;4.700;2023-09-19T07:13:17;6.07;;;2.57;;
19705;SDS011;10003;52.506;4.700;2023-09-19T07:15:46;2.67;;;1.03;;
19705;SDS011;10003;52.506;4.700;2023-09-19T07:18:16;2.73;;;1.17;;
19705;SDS011;10003;52.506;4.700;2023-09-19T07:20:46;2.63;;;2.07;;
19705;SDS011;10003;52.506;4.700;2023-09-19T07:23:19;2.93;;;1.30;;
19705;SDS011;10003;52.506;4.700;2023-09-19T07:25:49;12.23;;;3.27;;
19705;SDS011;10003;52.506;4.700;2023-09-19T07:28:19;5.07;;;2.00;;
19705;SDS011;10003;52.506;4.700;2023-09-19T07:30:51;4.00;;;2.10;;
19705;SDS011;10003;52.506;4.700;2023-09-19T07:33:19;7.33;;;2.93;;
19705;SDS011;10003;52.506;4.700;2023-09-19T07:35:48;9.37;;;2.80;;
19705;SDS011;10003;52.506;4.700;2023-09-19T07:38:17;7.33;;;2.13;;
19705;SDS011;10003;52.506;4.700;2023-09-19T07:40:46;10.90;;;3.07;;
19705;SDS011;10003;52.506;4.700;2023-09-19T07:43:15;5.93;;;2.70;;
19705;SDS011;10003;52.506;4.700;2023-09-19T07:45:44;3.83;;;1.17;;
19705;SDS011;10003;52.506;4.700;2023-09-19T07:48:13;2.03;;;0.97;;
19705;SDS011;10003;52.506;4.700;2023-09-19T07:50:42;4.40;;;2.13;;
19705;SDS011;10003;52.506;4.700;2023-09-19T07:53:11;11.00;;;2.10;;
19705;SDS011;10003;52.506;4.700;2023-09-19T07:55:42;4.17;;;1.77;;
19705;SDS011;10003;52.506;4.700;2023-09-19T07:58:16;6.30;;;2.33;;
19705;SDS011;10003;52.506;4.700;2023-09-19T08:00:44;4.27;;;1.33;;
19705;SDS011;10003;52.506;4.700;2023-09-19T08:03:13;5.67;;;2.20;;
19705;SDS011;10003;52.506;4.700;2023-09-19T08:05:43;8.43;;;5.07;;
19705;SDS011;10003;52.506;4.700;2023-09-19T08:08:12;8.80;;;2.73;;
19705;SDS011;10003;52.506;4.700;2023-09-19T08:10:42;10.40;;;2.23;;
19705;SDS011;10003;52.506;4.700;2023-09-19T08:13:19;7.47;;;2.63;;
19705;SDS011;10003;52.506;4.700;2023-09-19T08:15:48;6.23;;;2.47;;
19705;SDS011;10003;52.506;4.700;2023-09-19T08:18:17;3.80;;;2.00;;
19705;SDS011;10003;52.506;4.700;2023-09-19T08:20:51;2.03;;;1.87;;
19705;SDS011;10003;52.506;4.700;2023-09-19T08:23:19;10.83;;;4.40;;
19705;SDS011;10003;52.506;4.700;2023-09-19T08:25:48;7.50;;;2.57;;
19705;SDS011;10003;52.506;4.700;2023-09-19T08:28:21;5.33;;;2.00;;
19705;SDS011;10003;52.506;4.700;2023-09-19T08:30:51;6.03;;;2.10;;
19705;SDS011;10003;52.506;4.700;2023-09-19T08:33:21;6.50;;;1.70;;
19705;SDS011;10003;52.506;4.700;2023-09-19T08:35:49;6.63;;;1.83;;
19705;SDS011;10003;52.506;4.700;2023-09-19T08:38:18;6.43;;;1.80;;
19705;SDS011;10003;52.506;4.700;2023-09-19T08:40:48;6.20;;;2.17;;
19705;SDS011;10003;52.506;4.700;2023-09-19T08:43:22;7.60;;;2.47;;
19705;SDS011;10003;52.506;4.700;2023-09-19T08:45:51;7.67;;;2.23;;
19705;SDS011;10003;52.506;4.700;2023-09-19T08:48:22;5.40;;;1.87;;
19705;SDS011;10003;52.506;4.700;2023-09-19T08:50:52;6.60;;;1.93;;
19705;SDS011;10003;52.506;4.700;2023-09-19T08:53:26;5.90;;;2.30;;
19705;SDS011;10003;52.506;4.700;2023-09-19T08:55:55;3.93;;;2.17;;
19705;SDS011;10003;52.506;4.700;2023-09-19T08:58:31;9.73;;;2.57;;
19705;SDS011;10003;52.506;4.700;2023-09-19T09:01:01;9.57;;;2.07;;
19705;SDS011;10003;52.506;4.700;2023-09-19T09:03:34;7.73;;;1.77;;
19705;SDS011;10003;52.506;4.700;2023-09-19T09:06:04;5.10;;;1.90;;
19705;SDS011;10003;52.506;4.700;2023-09-19T09:08:35;3.80;;;1.47;;
19705;SDS011;10003;52.506;4.700;2023-09-19T09:11:03;6.40;;;1.63;;
19705;SDS011;10003;52.506;4.700;2023-09-19T09:13:35;14.37;;;2.73;;
19705;SDS011;10003;52.506;4.700;2023-09-19T09:16:05;6.83;;;2.20;;
19705;SDS011;10003;52.506;4.700;2023-09-19T09:18:37;7.37;;;2.60;;
19705;SDS011;10003;52.506;4.700;2023-09-19T09:21:06;4.10;;;1.90;;
19705;SDS011;10003;52.506;4.700;2023-09-19T09:23:38;10.43;;;1.97;;
19705;SDS011;10003;52.506;4.700;2023-09-19T09:26:07;5.73;;;2.47;;
19705;SDS011;10003;52.506;4.700;2023-09-19T09:28:38;11.10;;;3.73;;
19705;SDS011;10003;52.506;4.700;2023-09-19T09:31:22;8.57;;;3.03;;
19705;SDS011;10003;52.506;4.700;2023-09-19T09:33:54;8.57;;;4.07;;
19705;SDS011;10003;52.506;4.700;2023-09-19T09:36:36;10.67;;;2.87;;
19705;SDS011;10003;52.506;4.700;2023-09-19T09:39:05;2.77;;;1.73;;
19705;SDS011;10003;52.506;4.700;2023-09-19T09:41:44;8.17;;;4.30;;
19705;SDS011;10003;52.506;4.700;2023-09-19T09:44:15;3.83;;;3.43;;
19705;SDS011;10003;52.506;4.700;2023-09-19T09:46:45;12.07;;;4.70;;
19705;SDS011;10003;52.506;4.700;2023-09-19T09:49:31;10.80;;;5.27;;
19705;SDS011;10003;52.506;4.700;2023-09-19T09:52:02;13.43;;;4.13;;
19705;SDS011;10003;52.506;4.700;2023-09-19T09:54:37;12.10;;;5.57;;
19705;SDS011;10003;52.506;4.700;2023-09-19T09:57:09;12.37;;;3.57;;
19705;SDS011;10003;52.506;4.700;2023-09-19T09:59:51;9.37;;;2.73;;
19705;SDS011;10003;52.506;4.700;2023-09-19T10:02:25;13.53;;;4.83;;
19705;SDS011;10003;52.506;4.700;2023-09-19T10:05:11;5.77;;;2.53;;
19705;SDS011;10003;52.506;4.700;2023-09-19T10:07:47;7.60;;;3.23;;
19705;SDS011;10003;52.506;4.700;2023-09-19T10:10:30;6.60;;;2.13;;
19705;SDS011;10003;52.506;4.700;2023-09-19T10:13:21;14.33;;;4.80;;
19705;SDS011;10003;52.506;4.700;2023-09-19T10:15:52;15.97;;;5.37;;
19705;SDS011;10003;52.506;4.700;2023-09-19T10:18:23;10.93;;;4.43;;
19705;SDS011;10003;52.506;4.700;2023-09-19T10:20:53;10.90;;;4.20;;
19705;SDS011;10003;52.506;4.700;2023-09-19T10:23:22;12.87;;;4.23;;
19705;SDS011;10003;52.506;4.700;2023-09-19T10:25:52;6.40;;;3.37;;
19705;SDS011;10003;52.506;4.700;2023-09-19T10:28:22;11.40;;;4.17;;
19705;SDS011;10003;52.506;4.700;2023-09-19T10:30:53;13.27;;;4.17;;
19705;SDS011;10003;52.506;4.700;2023-09-19T10:33:23;10.53;;;3.20;;
19705;SDS011;10003;52.506;4.700;2023-09-19T10:35:53;5.23;;;2.17;;
19705;SDS011;10003;52.506;4.700;2023-09-19T10:38:23;3.73;;;2.50;;
19705;SDS011;10003;52.506;4.700;2023-09-19T10:40:52;10.43;;;3.13;;
19705;SDS011;10003;52.506;4.700;2023-09-19T10:43:21;3.60;;;1.77;;
19705;SDS011;10003;52.506;4.700;2023-09-19T10:45:55;10.80;;;3.00;;
19705;SDS011;10003;52.506;4.700;2023-09-19T10:48:25;12.57;;;2.97;;
19705;SDS011;10003;52.506;4.700;2023-09-19T10:50:56;6.80;;;2.70;;
19705;SDS011;10003;52.506;4.700;2023-09-19T10:53:27;5.70;;;2.57;;
19705;SDS011;10003;52.506;4.700;2023-09-19T10:55:59;5.43;;;2.77;;
19705;SDS011;10003;52.506;4.700;2023-09-19T10:58:30;9.50;;;3.37;;
19705;SDS011;10003;52.506;4.700;2023-09-19T11:01:05;8.80;;;2.87;;
19705;SDS011;10003;52.506;4.700;2023-09-19T11:03:38;8.20;;;3.37;;
19705;SDS011;10003;52.506;4.700;2023-09-19T11:06:11;8.27;;;1.97;;
19705;SDS011;10003;52.506;4.700;2023-09-19T11:08:56;2.27;;;2.07;;
19705;SDS011;10003;52.506;4.700;2023-09-19T11:11:39;8.37;;;2.33;;
19705;SDS011;10003;52.506;4.700;2023-09-19T11:28:37;8.00;;;3.23;;
19705;SDS011;10003;52.506;4.700;2023-09-19T11:36:38;7.67;;;3.43;;
19705;SDS011;10003;52.506;4.700;2023-09-19T11:39:11;12.50;;;2.87;;
19705;SDS011;10003;52.506;4.700;2023-09-19T11:41:53;8.67;;;3.73;;
19705;SDS011;10003;52.506;4.700;2023-09-19T11:44:33;14.80;;;3.80;;
19705;SDS011;10003;52.506;4.700;2023-09-19T11:47:05;11.03;;;5.67;;
19705;SDS011;10003;52.506;4.700;2023-09-19T11:49:40;10.07;;;3.53;;
19705;SDS011;10003;52.506;4.700;2023-09-19T11:52:09;13.10;;;4.57;;
19705;SDS011;10003;52.506;4.700;2023-09-19T11:54:39;10.33;;;3.87;;
19705;SDS011;10003;52.506;4.700;2023-09-19T11:57:09;11.17;;;4.80;;
19705;SDS011;10003;52.506;4.700;2023-09-19T11:59:39;15.63;;;3.93;;
19705;SDS011;10003;52.506;4.700;2023-09-19T12:05:04;7.60;;;3.27;;
19705;SDS011;10003;52.506;4.700;2023-09-19T12:07:34;9.63;;;3.40;;
19705;SDS011;10003;52.506;4.700;2023-09-19T12:10:11;3.87;;;2.53;;
19705;SDS011;10003;52.506;4.700;2023-09-19T12:12:46;13.37;;;4.20;;
19705;SDS011;10003;52.506;4.700;2023-09-19T12:15:24;9.83;;;2.43;;
19705;SDS011;10003;52.506;4.700;2023-09-19T12:17:55;8.83;;;2.87;;
19705;SDS011;10003;52.506;4.700;2023-09-19T12:20:24;4.77;;;2.90;;
19705;SDS011;10003;52.506;4.700;2023-09-19T12:22:52;10.73;;;3.33;;
19705;SDS011;10003;52.506;4.700;2023-09-19T12:25:21;8.13;;;2.47;;
19705;SDS011;10003;52.506;4.700;2023-09-19T12:27:51;10.67;;;3.90;;
19705;SDS011;10003;52.506;4.700;2023-09-19T12:30:21;8.90;;;4.23;;
19705;SDS011;10003;52.506;4.700;2023-09-19T12:33:01;19.23;;;7.13;;
19705;SDS011;10003;52.506;4.700;2023-09-19T12:35:33;10.57;;;3.17;;
19705;SDS011;10003;52.506;4.700;2023-09-19T12:38:02;9.93;;;2.97;;
19705;SDS011;10003;52.506;4.700;2023-09-19T12:40:32;15.70;;;3.83;;
19705;SDS011;10003;52.506;4.700;2023-09-19T12:43:04;15.23;;;5.40;;
19705;SDS011;10003;52.506;4.700;2023-09-19T12:45:33;9.90;;;4.57;;
19705;SDS011;10003;52.506;4.700;2023-09-19T12:48:19;10.77;;;3.77;;
19705;SDS011;10003;52.506;4.700;2023-09-19T12:53:43;9.83;;;3.67;;
19705;SDS011;10003;52.506;4.700;2023-09-19T12:56:13;10.47;;;5.00;;
19705;SDS011;10003;52.506;4.700;2023-09-19T12:58:49;8.60;;;4.53;;
19705;SDS011;10003;52.506;4.700;2023-09-19T13:01:19;13.23;;;6.30;;
19705;SDS011;10003;52.506;4.700;2023-09-19T13:06:36;9.93;;;3.40;;
19705;SDS011;10003;52.506;4.700;2023-09-19T13:09:09;6.97;;;2.53;;
19705;SDS011;10003;52.506;4.700;2023-09-19T13:11:38;15.63;;;5.70;;
19705;SDS011;10003;52.506;4.700;2023-09-19T13:14:15;14.87;;;3.70;;
19705;SDS011;10003;52.506;4.700;2023-09-19T13:16:58;9.87;;;3.10;;
19705;SDS011;10003;52.506;4.700;2023-09-19T13:19:40;13.03;;;3.93;;
19705;SDS011;10003;52.506;4.700;2023-09-19T13:24:59;8.13;;;2.67;;
19705;SDS011;10003;52.506;4.700;2023-09-19T13:27:27;7.10;;;3.23;;
19705;SDS011;10003;52.506;4.700;2023-09-19T13:29:56;13.87;;;4.70;;
19705;SDS011;10003;52.506;4.700;2023-09-19T13:32:25;14.33;;;5.77;;
19705;SDS011;10003;52.506;4.700;2023-09-19T13:34:53;21.47;;;6.07;;
19705;SDS011;10003;52.506;4.700;2023-09-19T13:37:22;14.43;;;4.47;;
19705;SDS011;10003;52.506;4.700;2023-09-19T13:39:52;9.63;;;4.37;;
19705;SDS011;10003;52.506;4.700;2023-09-19T13:42:22;10.53;;;4.70;;
19705;SDS011;10003;52.506;4.700;2023-09-19T13:44:56;9.80;;;4.23;;
19705;SDS011;10003;52.506;4.700;2023-09-19T13:47:25;11.03;;;3.63;;
19705;SDS011;10003;52.506;4.700;2023-09-19T13:49:53;9.83;;;3.43;;
19705;SDS011;10003;52.506;4.700;2023-09-19T13:52:22;13.70;;;4.87;;
19705;SDS011;10003;52.506;4.700;2023-09-19T13:54:50;12.73;;;3.53;;
19705;SDS011;10003;52.506;4.700;2023-09-19T13:57:19;11.90;;;4.67;;
19705;SDS011;10003;52.506;4.700;2023-09-19T13:59:49;12.30;;;4.80;;
19705;SDS011;10003;52.506;4.700;2023-09-19T14:02:18;19.67;;;5.00;;
19705;SDS011;10003;52.506;4.700;2023-09-19T14:04:45;8.90;;;3.27;;
19705;SDS011;10003;52.506;4.700;2023-09-19T14:07:14;14.93;;;3.50;;
19705;SDS011;10003;52.506;4.700;2023-09-19T14:09:46;11.17;;;4.93;;
19705;SDS011;10003;52.506;4.700;2023-09-19T14:12:17;17.33;;;4.13;;
19705;SDS011;10003;52.506;4.700;2023-09-19T14:14:48;13.30;;;3.90;;
19705;SDS011;10003;52.506;4.700;2023-09-19T14:17:19;21.87;;;6.40;;
19705;SDS011;10003;52.506;4.700;2023-09-19T14:19:47;15.83;;;4.40;;
19705;SDS011;10003;52.506;4.700;2023-09-19T14:22:16;15.13;;;4.83;;
19705;SDS011;10003;52.506;4.700;2023-09-19T14:24:44;28.80;;;5.87;;
19705;SDS011;10003;52.506;4.700;2023-09-19T14:27:14;22.03;;;5.77;;
19705;SDS011;10003;52.506;4.700;2023-09-19T14:29:42;10.60;;;5.33;;
19705;SDS011;10003;52.506;4.700;2023-09-19T14:32:11;16.03;;;3.67;;
19705;SDS011;10003;52.506;4.700;2023-09-19T14:34:41;18.20;;;5.90;;
19705;SDS011;10003;52.506;4.700;2023-09-19T14:37:11;19.90;;;5.70;;
19705;SDS011;10003;52.506;4.700;2023-09-19T14:39:40;18.93;;;4.73;;
19705;SDS011;10003;52.506;4.700;2023-09-19T14:42:11;10.93;;;4.10;;
19705;SDS011;10003;52.506;4.700;2023-09-19T14:44:41;16.07;;;5.23;;
19705;SDS011;10003;52.506;4.700;2023-09-19T14:47:09;19.00;;;6.03;;
19705;SDS011;10003;52.506;4.700;2023-09-19T14:49:41;17.27;;;5.07;;
19705;SDS011;10003;52.506;4.700;2023-09-19T14:52:11;14.87;;;4.87;;
19705;SDS011;10003;52.506;4.700;2023-09-19T14:54:42;13.80;;;3.57;;
19705;SDS011;10003;52.506;4.700;2023-09-19T14:57:10;18.53;;;6.97;;
19705;SDS011;10003;52.506;4.700;2023-09-19T14:59:40;13.73;;;4.30;;
19705;SDS011;10003;52.506;4.700;2023-09-19T15:02:08;9.83;;;3.53;;
19705;SDS011;10003;52.506;4.700;2023-09-19T15:04:37;13.77;;;4.63;;
19705;SDS011;10003;52.506;4.700;2023-09-19T15:07:09;12.77;;;5.67;;
19705;SDS011;10003;52.506;4.700;2023-09-19T15:09:37;13.13;;;4.40;;
19705;SDS011;10003;52.506;4.700;2023-09-19T15:12:06;25.53;;;6.17;;
19705;SDS011;10003;52.506;4.700;2023-09-19T15:14:35;11.70;;;4.37;;
19705;SDS011;10003;52.506;4.700;2023-09-19T15:17:03;19.30;;;4.10;;
19705;SDS011;10003;52.506;4.700;2023-09-19T15:19:32;2.57;;;1.67;;
19705;SDS011;10003;52.506;4.700;2023-09-19T15:22:01;14.60;;;5.33;;
19705;SDS011;10003;52.506;4.700;2023-09-19T15:24:31;14.30;;;3.73;;
19705;SDS011;10003;52.506;4.700;2023-09-19T15:27:00;8.53;;;2.80;;
19705;SDS011;10003;52.506;4.700;2023-09-19T15:29:28;9.90;;;3.83;;
19705;SDS011;10003;52.506;4.700;2023-09-19T15:31:57;12.27;;;3.73;;
19705;SDS011;10003;52.506;4.700;2023-09-19T15:34:28;12.30;;;4.77;;
19705;SDS011;10003;52.506;4.700;2023-09-19T15:36:57;13.77;;;4.07;;